Aérodrome :
LOGIN :

S'inscrire | Disclaimer

   EN    FR    IT 

 










Légende :    VFR   VFR Marginal   IFR   IFR Intensif   IFR Très Intensif
Visi : 
Plafond : 
>= 8 km
>= 3000ft
5 à 8 km
1000 à 3000 ft
1500m à 5 km
500 à 1000 ft
800 à 1500m
200 à 500 ft
< 800m
< 200 ft
Symboles :   Orages  Brouillard  Fortes neiges  Fortes précipitations  Vent > 20 kt
SIGMETs :   Divers  Orages  Givrage  Turbulence  Onde Orograph.  Cendres Volcan.







- Altitude de l'aérodrome : 256 ft
- Code IATA : CFR
- Voir les cartes d'approche


LFRK - Caen

DERNIER METAR :
  • 201900Z AUTO 02006KT CAVOK 16/07 Q1025 BECMG 3000 BR

METARs EXPIRÉS :
  • 201830Z AUTO 35005KT 320V020 CAVOK 16/09 Q1025 BECMG 3000 BR
  • 201800Z AUTO 34007KT CAVOK 16/10 Q1025 TEMPO 4000 HZ
  • 201730Z AUTO 34008KT CAVOK 17/10 Q1025 TEMPO 4000 HZ
  • 201700Z AUTO 33009KT 9000 NSC 17/11 Q1025 TEMPO 4000 HZ
  • 201630Z AUTO 33009KT 8000 NSC 18/11 Q1025 TEMPO 4000 HZ

TAF TAF LFRK
Valide du 20 à 15h jusqu'au 21 à 00h UTC


201400Z 2015/2024 01010KT 8000 NSC
TEMPO 2015/2020 4000 HZ
BECMG 2020/2022 VRB03KT 3000 BR
Météo : +33 2 31 26 68 11
Pas de NOTAMs connus pour ce terrain.
1 SIGMET publié pour la FIR Brest (LFRR) :
 
Orages noyés dans la masse
LFRR SIGMET 1 VALID 201900/202100 LFPW
LFRR BREST FIR/UIR EMBD TS OBS WI N4645 W00015 - N4630 W00015 - N4630 W00130 - N4645 W00015 TOP FL320 MOV SW 15KT WKN=



MET'MAP, la Météo Aéronautique d'un coup d'oeil ! - Copyright ORBIFLY Décembre 2007 - Disclaimer

ORBIFLY MET'MAP TEAM :

Programmation & Développement : Alexandra Zaïnal
Conception & Développement : Baudouin d'Aumeries
Co-Programmation & Développement : Marc-Olivier Méhu
Soutien technique & logistique : Manuel Goepfert

Contact : metmap@orbifly.com




SOURCES & CREDITS :

   NOAA